createdAt,value
2019-04-05T00:00:24.551Z,52.17
2019-04-05T00:02:56.320Z,52.33
2019-04-05T00:05:28.003Z,50.10
2019-04-05T00:08:00.360Z,54.80
2019-04-05T00:10:32.122Z,50.73
2019-04-05T00:13:04.069Z,50.67
2019-04-05T00:15:38.018Z,51.70
2019-04-05T00:18:08.748Z,56.13
2019-04-05T00:20:41.410Z,58.70
2019-04-05T00:23:13.078Z,59.10
2019-04-05T00:25:44.813Z,61.00
2019-04-05T00:28:16.619Z,58.43
2019-04-05T00:30:48.450Z,59.57
2019-04-05T00:33:19.996Z,63.20
2019-04-05T00:35:51.458Z,62.53
2019-04-05T00:38:23.231Z,63.17
2019-04-05T00:40:56.010Z,62.97
2019-04-05T00:43:27.752Z,63.00
2019-04-05T00:45:59.242Z,65.10
2019-04-05T00:48:30.991Z,65.03
2019-04-05T00:51:02.741Z,61.83
2019-04-05T00:53:34.506Z,62.97
2019-04-05T00:56:06.048Z,69.53
2019-04-05T00:58:38.020Z,73.10
2019-04-05T01:01:09.580Z,73.97
2019-04-05T01:03:41.447Z,71.43
2019-04-05T01:06:12.973Z,74.70
2019-04-05T01:08:44.973Z,73.07
2019-04-05T01:11:16.828Z,71.80
2019-04-05T01:13:48.717Z,70.87
2019-04-05T01:16:20.272Z,71.63
2019-04-05T01:18:52.694Z,73.17
2019-04-05T01:21:24.291Z,73.87
2019-04-05T01:23:56.128Z,73.70
2019-04-05T01:26:27.795Z,71.43
2019-04-05T01:28:59.339Z,69.57
2019-04-05T01:31:30.791Z,65.40
2019-04-05T01:34:05.379Z,60.67
2019-04-05T01:36:35.744Z,56.53
2019-04-05T01:39:07.308Z,59.93
2019-04-05T01:41:39.062Z,60.50
2019-04-05T01:44:10.688Z,59.97
2019-04-05T01:46:43.187Z,59.13
2019-04-05T01:49:14.867Z,54.73
2019-04-05T01:51:46.704Z,53.37
2019-04-05T01:54:18.363Z,53.03
2019-04-05T01:56:50.037Z,47.93
2019-04-05T01:59:21.894Z,46.63
2019-04-05T02:01:53.331Z,48.93
2019-04-05T02:04:24.908Z,48.27
2019-04-05T02:06:56.442Z,45.07
2019-04-05T02:09:28.201Z,47.17
2019-04-05T02:11:59.877Z,45.53
2019-04-05T02:14:31.622Z,43.97
2019-04-05T02:17:03.302Z,43.70
2019-04-05T02:19:34.759Z,43.60
2019-04-05T02:22:06.509Z,41.53
2019-04-05T02:24:38.280Z,43.20
2019-04-05T02:27:09.827Z,43.73
2019-04-05T02:29:41.673Z,43.47
2019-04-05T02:32:14.286Z,42.27
2019-04-05T02:34:46.214Z,41.80
2019-04-05T02:37:17.698Z,44.47
2019-04-05T02:39:49.641Z,43.23
2019-04-05T02:42:21.525Z,43.20
2019-04-05T02:44:52.978Z,42.80
2019-04-05T02:47:24.939Z,41.47
2019-04-05T02:49:57.284Z,42.53
2019-04-05T02:52:29.148Z,45.03
2019-04-05T02:55:00.821Z,44.20
2019-04-05T02:57:32.501Z,48.17
2019-04-05T03:00:04.965Z,52.93
2019-04-05T03:02:36.602Z,57.53
2019-04-05T03:05:08.247Z,55.20
2019-04-05T03:07:39.924Z,54.37
2019-04-05T03:10:14.536Z,53.67
2019-04-05T03:12:46.825Z,51.43
2019-04-05T03:15:18.586Z,49.93
2019-04-05T03:17:50.447Z,53.67
2019-04-05T03:20:21.925Z,51.07
2019-04-05T03:22:53.749Z,51.00
2019-04-05T03:25:25.428Z,48.63
2019-04-05T03:27:57.180Z,45.57
2019-04-05T03:30:28.526Z,49.50
2019-04-05T03:33:00.465Z,49.03
2019-04-05T03:35:32.051Z,53.87
2019-04-05T03:38:03.589Z,54.93
2019-04-05T03:40:35.556Z,56.13
2019-04-05T03:43:07.434Z,53.83
2019-04-05T03:45:39.478Z,53.30
2019-04-05T03:48:11.085Z,53.43
2019-04-05T03:50:45.059Z,52.63
2019-04-05T03:53:16.116Z,55.53
2019-04-05T03:55:47.871Z,54.03
2019-04-05T03:58:19.305Z,56.90
2019-04-05T04:00:50.969Z,55.70
2019-04-05T04:03:22.718Z,56.40
2019-04-05T04:06:02.491Z,56.00
2019-04-05T04:08:34.039Z,54.57
2019-04-05T04:11:05.782Z,54.07
2019-04-05T04:13:37.251Z,52.70
2019-04-05T04:16:08.918Z,55.40
2019-04-05T04:18:40.767Z,60.83
2019-04-05T04:21:32.302Z,57.67
2019-04-05T04:24:06.025Z,55.77
2019-04-05T04:26:38.904Z,56.93
2019-04-05T04:29:10.744Z,57.50
2019-04-05T04:31:42.406Z,55.60
2019-04-05T04:34:14.169Z,57.40
2019-04-05T04:36:46.019Z,54.87
2019-04-05T04:39:17.900Z,54.93
2019-04-05T04:41:49.644Z,52.03
2019-04-05T04:44:20.994Z,54.03
2019-04-05T04:46:54.495Z,50.83
2019-04-05T04:49:26.354Z,54.55
2019-04-05T04:51:57.886Z,55.13
2019-04-05T04:54:29.352Z,58.27
2019-04-05T04:57:01.322Z,58.93
2019-04-05T04:59:33.171Z,59.63
2019-04-05T05:02:05.151Z,61.23
2019-04-05T05:04:36.691Z,61.73
2019-04-05T05:07:08.767Z,64.30
2019-04-05T05:09:40.202Z,66.03
2019-04-05T05:12:12.082Z,64.03
2019-04-05T05:14:43.838Z,66.37
2019-04-05T05:17:15.279Z,63.00
2019-04-05T05:19:47.178Z,60.37
2019-04-05T05:22:18.998Z,57.97
2019-04-05T05:24:50.470Z,56.30
2019-04-05T05:27:22.130Z,54.27
2019-04-05T05:29:54.163Z,53.13
2019-04-05T05:32:25.784Z,53.23
2019-04-05T05:35:02.203Z,51.80
2019-04-05T05:37:32.795Z,52.73
2019-04-05T05:40:07.665Z,50.83
2019-04-05T05:42:39.137Z,51.23
2019-04-05T05:45:10.879Z,51.83
2019-04-05T05:47:51.579Z,52.37
2019-04-05T05:50:15.647Z,51.47
2019-04-05T05:52:48.107Z,51.03
2019-04-05T05:55:19.660Z,57.10
2019-04-05T05:57:54.356Z,54.97
2019-04-05T06:00:25.041Z,52.43
2019-04-05T06:02:56.886Z,55.50
2019-04-05T06:05:28.961Z,55.90
2019-04-05T06:08:00.999Z,54.53
2019-04-05T06:10:33.310Z,53.07
2019-04-05T06:13:07.067Z,55.50
2019-04-05T06:15:37.845Z,56.17
2019-04-05T06:18:11.858Z,54.93
2019-04-05T06:20:43.316Z,56.30
2019-04-05T06:23:15.094Z,58.87
2019-04-05T06:25:47.127Z,56.70
2019-04-05T06:28:18.946Z,56.63
2019-04-05T06:30:50.866Z,56.73
2019-04-05T06:33:31.465Z,58.43
2019-04-05T06:35:56.033Z,59.35
2019-04-05T06:38:28.602Z,59.65
2019-04-05T06:41:00.369Z,57.45
2019-04-05T06:43:31.798Z,58.92
2019-04-05T06:46:03.754Z,61.83
2019-04-05T06:48:35.435Z,61.00
2019-04-05T06:51:07.073Z,58.55
2019-04-05T06:53:38.951Z,60.88
2019-04-05T06:56:10.385Z,61.20
2019-04-05T06:58:42.411Z,62.17
2019-04-05T07:01:14.260Z,61.20
2019-04-05T07:03:45.643Z,61.98
2019-04-05T07:06:17.547Z,59.63
2019-04-05T07:08:54.035Z,57.13
2019-04-05T07:11:22.704Z,54.00
2019-04-05T07:13:55.621Z,50.73
2019-04-05T07:16:27.432Z,45.48
2019-04-05T07:18:59.314Z,35.98
2019-04-05T07:21:31.196Z,30.92
2019-04-05T07:24:02.935Z,40.83
2019-04-05T07:26:35.387Z,41.75
2019-04-05T07:29:07.054Z,44.05
2019-04-05T07:31:38.489Z,45.00
2019-04-05T07:34:10.155Z,47.80
2019-04-05T07:36:41.726Z,42.58
2019-04-05T07:39:13.575Z,44.63
2019-04-05T07:41:45.830Z,41.98
2019-04-05T07:44:17.414Z,44.10
2019-04-05T07:46:49.077Z,44.48
2019-04-05T07:49:20.922Z,47.45
2019-04-05T07:51:52.902Z,45.38
2019-04-05T07:54:24.357Z,43.90
2019-04-05T07:56:56.113Z,42.40
2019-04-05T07:59:27.751Z,44.15
2019-04-05T08:01:59.675Z,43.05
2019-04-05T08:04:31.187Z,44.27
2019-04-05T08:07:03.683Z,42.05
2019-04-05T08:09:35.434Z,41.08
2019-04-05T08:12:07.162Z,40.50
2019-04-05T08:14:38.731Z,41.23
2019-04-05T08:17:10.375Z,41.28
2019-04-05T08:19:41.846Z,40.33
2019-04-05T08:22:13.296Z,37.80
2019-04-05T08:24:45.268Z,35.08
2019-04-05T08:27:16.659Z,38.63
2019-04-05T08:29:48.574Z,37.17
2019-04-05T08:32:20.130Z,33.33
2019-04-05T08:34:51.686Z,34.95
2019-04-05T08:37:23.531Z,31.95
2019-04-05T08:39:55.710Z,26.90
2019-04-05T08:42:28.192Z,29.15
2019-04-05T08:45:00.559Z,29.52
2019-04-05T08:47:32.115Z,28.65
2019-04-05T08:50:04.777Z,19.87
2019-04-05T08:52:36.220Z,18.98
2019-04-05T08:55:08.218Z,18.67
2019-04-05T08:57:39.982Z,20.15
2019-04-05T09:00:11.740Z,21.15
2019-04-05T09:02:43.501Z,22.10
2019-04-05T09:05:15.257Z,21.23
2019-04-05T09:07:46.912Z,21.97
2019-04-05T09:10:18.362Z,22.77
2019-04-05T09:12:50.925Z,21.90
2019-04-05T09:15:22.477Z,20.60
2019-04-05T09:17:54.155Z,20.90
2019-04-05T09:20:25.607Z,20.02
2019-04-05T09:22:57.368Z,20.05
2019-04-05T09:25:29.112Z,20.88
2019-04-05T09:28:00.903Z,21.70
2019-04-05T09:30:32.644Z,21.48
2019-04-05T09:33:04.080Z,19.62
2019-04-05T09:35:36.657Z,20.25
2019-04-05T09:38:08.444Z,20.62
2019-04-05T09:40:41.860Z,20.27
2019-04-05T09:43:13.235Z,19.73
2019-04-05T09:45:45.153Z,18.30
2019-04-05T09:48:17.114Z,19.05
2019-04-05T09:50:48.670Z,19.73
2019-04-05T09:53:20.531Z,19.25
2019-04-05T09:55:52.006Z,17.82
2019-04-05T09:58:23.732Z,18.02
2019-04-05T10:00:57.043Z,18.98
2019-04-05T10:03:28.787Z,18.35
2019-04-05T10:06:02.002Z,17.45
2019-04-05T10:08:33.733Z,17.02
2019-04-05T10:11:05.204Z,17.15
2019-04-05T10:13:37.562Z,19.07
2019-04-05T10:16:09.349Z,19.35
2019-04-05T10:18:41.202Z,19.50
2019-04-05T10:21:12.852Z,18.70
2019-04-05T10:23:44.701Z,18.30
2019-04-05T10:26:16.373Z,19.80
2019-04-05T10:28:47.894Z,18.07
2019-04-05T10:31:19.490Z,17.07
2019-04-05T10:33:51.441Z,16.77
2019-04-05T10:36:23.212Z,17.82
2019-04-05T10:38:54.697Z,17.48
2019-04-05T10:41:26.407Z,18.17
2019-04-05T10:43:58.485Z,17.17
2019-04-05T10:46:30.143Z,18.42
2019-04-05T10:49:01.581Z,16.75
2019-04-05T10:51:33.355Z,17.23
2019-04-05T10:54:04.905Z,15.80
2019-04-05T10:56:36.667Z,16.65
2019-04-05T10:59:08.738Z,16.05
2019-04-05T11:01:40.169Z,16.97
2019-04-05T11:04:11.719Z,17.25
2019-04-05T11:06:44.692Z,17.25
2019-04-05T11:09:16.183Z,16.77
2019-04-05T11:11:47.638Z,17.45
2019-04-05T11:14:19.188Z,16.00
2019-04-05T11:16:58.201Z,12.70
2019-04-05T11:19:23.719Z,12.25
2019-04-05T11:21:55.377Z,13.30
2019-04-05T11:24:26.744Z,14.07
2019-04-05T11:26:58.400Z,13.53
2019-04-05T11:29:30.068Z,12.95
2019-04-05T11:32:01.806Z,11.83
2019-04-05T11:34:33.362Z,12.75
2019-04-05T11:37:05.137Z,13.25
2019-04-05T11:39:36.901Z,12.93
2019-04-05T11:42:08.765Z,14.38
2019-04-05T11:44:40.216Z,13.50
2019-04-05T11:47:11.884Z,13.35
2019-04-05T11:49:43.632Z,13.08
2019-04-05T11:52:15.260Z,13.03
2019-04-05T11:54:47.360Z,12.68
2019-04-05T11:57:18.815Z,12.80
2019-04-05T11:59:50.625Z,13.68
2019-04-05T12:02:23.895Z,12.40
2019-04-05T12:04:57.261Z,13.43
2019-04-05T12:07:29.119Z,14.20
2019-04-05T12:10:00.578Z,13.83
2019-04-05T12:12:31.901Z,14.13
2019-04-05T12:15:06.464Z,12.95
2019-04-05T12:17:38.495Z,15.63
2019-04-05T12:20:13.430Z,21.80
2019-04-05T12:22:44.999Z,13.53
2019-04-05T12:25:16.766Z,14.47
2019-04-05T12:27:48.505Z,13.43
2019-04-05T12:30:26.941Z,14.03
2019-04-05T12:32:58.481Z,13.83
2019-04-05T12:35:30.253Z,13.45
2019-04-05T12:38:01.709Z,14.58
2019-04-05T12:40:33.475Z,14.85
2019-04-05T12:43:05.107Z,13.68
2019-04-05T12:45:36.769Z,14.23
2019-04-05T12:48:08.239Z,15.60
2019-04-05T12:50:44.721Z,14.38
2019-04-05T12:53:14.214Z,14.90
2019-04-05T12:55:45.875Z,15.43
2019-04-05T12:58:18.022Z,14.80
2019-04-05T13:00:49.898Z,15.03
2019-04-05T13:03:21.469Z,14.23
2019-04-05T13:05:52.991Z,14.87
2019-04-05T13:08:24.674Z,15.80
2019-04-05T13:10:57.022Z,15.45
2019-04-05T13:13:28.603Z,15.48
2019-04-05T13:16:00.498Z,15.60
2019-04-05T13:18:32.417Z,14.47
2019-04-05T13:21:14.449Z,16.05
2019-04-05T13:23:37.463Z,15.48
2019-04-05T13:26:11.460Z,15.63
2019-04-05T13:28:42.543Z,15.67
2019-04-05T13:31:18.283Z,15.20
2019-04-05T13:33:48.520Z,14.87
2019-04-05T13:36:19.959Z,15.68
2019-04-05T13:38:54.979Z,15.35
2019-04-05T13:41:24.850Z,17.98
2019-04-05T13:43:56.489Z,17.77
2019-04-05T13:46:28.359Z,18.75
2019-04-05T13:48:59.772Z,18.35
2019-04-05T13:51:32.115Z,18.12
2019-04-05T13:54:03.624Z,17.62
2019-04-05T13:56:35.284Z,17.85
2019-04-05T13:59:07.744Z,17.95
2019-04-05T14:01:39.425Z,18.95
2019-04-05T14:04:12.407Z,18.73
2019-04-05T14:06:44.265Z,17.90
2019-04-05T14:09:16.030Z,19.05
2019-04-05T14:11:47.562Z,20.40
2019-04-05T14:14:19.134Z,19.35
2019-04-05T14:16:53.868Z,19.98
2019-04-05T14:19:24.113Z,20.55
2019-04-05T14:22:07.797Z,20.08
2019-04-05T14:24:29.149Z,20.20
2019-04-05T14:27:02.950Z,20.75
2019-04-05T14:29:33.895Z,19.60
2019-04-05T14:32:20.014Z,20.68
2019-04-05T14:34:39.252Z,20.62
2019-04-05T14:37:11.005Z,21.80
2019-04-05T14:39:42.869Z,21.30
2019-04-05T14:42:15.650Z,20.68
2019-04-05T14:44:47.190Z,20.97
2019-04-05T14:47:19.933Z,20.75
2019-04-05T14:49:51.543Z,44.63
2019-04-05T14:52:25.506Z,22.15
2019-04-05T14:54:57.770Z,20.52
2019-04-05T14:57:29.467Z,20.23
2019-04-05T15:00:00.936Z,21.82
2019-04-05T15:02:32.767Z,21.60
2019-04-05T15:05:06.112Z,18.55
2019-04-05T15:10:09.516Z,20.43
2019-04-05T15:12:41.577Z,19.45
2019-04-05T15:15:13.027Z,34.40
2019-04-05T15:17:48.166Z,26.75
2019-04-05T15:20:18.085Z,122.30
2019-04-05T15:22:49.843Z,46.75
2019-04-05T15:25:21.995Z,29.77
2019-04-05T15:27:55.530Z,26.05
2019-04-05T15:30:26.765Z,45.75
2019-04-05T15:33:00.041Z,27.77
2019-04-05T15:35:31.919Z,25.50
2019-04-05T15:38:03.556Z,21.82
2019-04-05T15:40:35.136Z,24.10
2019-04-05T15:43:06.990Z,21.68
2019-04-05T15:45:38.642Z,23.62
2019-04-05T15:48:09.993Z,25.32
2019-04-05T15:50:41.850Z,22.05
2019-04-05T15:53:13.626Z,20.48
2019-04-05T15:55:45.295Z,19.70
2019-04-05T15:58:16.837Z,22.35
2019-04-05T16:00:49.616Z,22.20
2019-04-05T16:03:21.385Z,21.17
2019-04-05T16:05:53.146Z,25.72
2019-04-05T16:08:24.831Z,23.42
2019-04-05T16:10:58.294Z,19.40
2019-04-05T16:13:30.165Z,18.30
2019-04-05T16:16:01.720Z,22.05
2019-04-05T16:18:33.582Z,27.45
2019-04-05T16:21:05.339Z,22.42
2019-04-05T16:23:37.101Z,18.60
2019-04-05T16:26:09.066Z,16.80
2019-04-05T16:28:41.188Z,18.40
2019-04-05T16:31:12.790Z,18.80
2019-04-05T16:33:44.347Z,19.05
2019-04-05T16:36:15.900Z,19.12
2019-04-05T16:38:47.437Z,20.08
2019-04-05T16:41:19.091Z,19.62
2019-04-05T16:43:51.681Z,18.07
2019-04-05T16:46:23.549Z,18.27
2019-04-05T16:48:55.109Z,20.60
2019-04-05T16:51:26.654Z,22.75
2019-04-05T16:54:04.238Z,22.15
2019-04-05T16:56:36.214Z,22.90
2019-04-05T16:59:07.772Z,23.65
2019-04-05T17:01:39.512Z,22.93
2019-04-05T17:04:11.088Z,23.15
2019-04-05T17:06:43.813Z,23.20
2019-04-05T17:09:15.422Z,23.92
2019-04-05T17:11:47.064Z,23.80
2019-04-05T17:14:18.845Z,30.32
2019-04-05T17:16:50.905Z,28.05
2019-04-05T17:19:22.560Z,30.75
2019-04-05T17:21:54.312Z,38.20
2019-04-05T17:24:26.580Z,42.95
2019-04-05T17:26:58.135Z,42.95
2019-04-05T17:29:29.585Z,43.73
2019-04-05T17:32:01.140Z,36.28
2019-04-05T17:34:33.332Z,35.25
2019-04-05T17:37:04.776Z,41.85
2019-04-05T17:39:36.110Z,40.85
2019-04-05T17:42:07.987Z,36.17
2019-04-05T17:44:39.746Z,36.05
2019-04-05T17:47:11.179Z,33.45
2019-04-05T17:49:42.956Z,35.35
2019-04-05T17:52:14.816Z,35.38
2019-04-05T17:54:46.679Z,34.38
2019-04-05T17:57:18.218Z,33.78
2019-04-05T17:59:49.830Z,37.58
2019-04-05T18:02:22.984Z,35.25
2019-04-05T18:04:54.542Z,30.25
2019-04-05T18:07:27.264Z,25.10
2019-04-05T18:09:59.291Z,24.52
2019-04-05T18:12:30.825Z,28.60
2019-04-05T18:15:02.598Z,27.65
2019-04-05T18:17:55.252Z,31.52
2019-04-05T18:20:26.718Z,31.85
2019-04-05T18:22:58.655Z,32.13
2019-04-05T18:25:30.326Z,37.67
2019-04-05T18:28:01.884Z,41.05
2019-04-05T18:30:33.508Z,43.30
2019-04-05T18:33:05.180Z,48.92
2019-04-05T18:35:37.063Z,51.77
2019-04-05T18:38:08.624Z,49.08
2019-04-05T18:40:40.637Z,48.98
2019-04-05T18:43:12.241Z,47.05
2019-04-05T18:45:43.900Z,43.52
2019-04-05T18:48:15.652Z,41.90
2019-04-05T18:50:48.703Z,51.13
2019-04-05T18:53:20.306Z,54.13
2019-04-05T18:55:51.862Z,55.15
2019-04-05T18:58:23.527Z,56.63
2019-04-05T19:00:55.071Z,56.60
2019-04-05T19:03:26.531Z,56.15
2019-04-05T19:05:58.574Z,57.10
2019-04-05T19:08:39.518Z,60.98
2019-04-05T19:11:03.246Z,78.65
2019-04-05T19:13:34.802Z,80.67
2019-04-05T19:16:06.319Z,67.25
2019-04-05T19:18:38.546Z,63.52
2019-04-05T19:21:10.264Z,59.38
2019-04-05T19:23:50.686Z,63.83
2019-04-05T19:26:14.913Z,64.12
2019-04-05T19:28:46.491Z,63.25
2019-04-05T19:49:14.081Z,73.27
2019-04-05T19:51:45.941Z,69.10
2019-04-05T19:54:19.041Z,70.30
2019-04-05T19:56:50.736Z,72.77
2019-04-05T19:59:22.457Z,70.03
2019-04-05T20:01:54.309Z,57.00
2019-04-05T20:04:27.995Z,57.00
2019-04-05T20:07:00.104Z,57.83
2019-04-05T20:09:31.670Z,58.47
2019-04-05T20:12:03.494Z,60.70
2019-04-05T20:14:35.026Z,57.30
2019-04-05T20:17:07.007Z,60.23
2019-04-05T20:19:38.667Z,62.00
2019-04-05T20:22:10.588Z,60.90
2019-04-05T20:24:42.182Z,64.27
2019-04-05T20:27:13.944Z,68.33
2019-04-05T20:29:45.383Z,54.70
2019-04-05T20:32:17.273Z,53.13
2019-04-05T20:34:49.258Z,59.23
2019-04-05T20:37:20.861Z,61.90
2019-04-05T20:39:53.844Z,61.77
2019-04-05T20:42:25.360Z,58.33
2019-04-05T20:44:57.177Z,60.67
2019-04-05T20:47:28.920Z,58.23
2019-04-05T20:50:00.509Z,57.53
2019-04-05T20:52:32.220Z,54.63
2019-04-05T20:55:06.697Z,53.43
2019-04-05T20:57:38.132Z,58.80
2019-04-05T21:00:10.645Z,60.20
2019-04-05T21:02:43.593Z,58.98
2019-04-05T21:05:24.808Z,65.57
2019-04-05T21:07:48.748Z,67.00
2019-04-05T21:10:20.401Z,60.03
2019-04-05T21:12:52.262Z,56.43
2019-04-05T21:15:23.936Z,55.77
2019-04-05T21:17:55.681Z,57.70
2019-04-05T21:20:27.336Z,56.93
2019-04-05T21:22:59.107Z,54.50
2019-04-05T21:25:30.863Z,51.97
2019-04-05T21:28:02.589Z,47.70
2019-04-05T21:30:34.267Z,46.50
2019-04-05T21:33:05.834Z,46.30
2019-04-05T21:35:37.493Z,44.23
2019-04-05T21:38:09.353Z,47.63
2019-04-05T21:40:40.880Z,45.93
2019-04-05T21:43:12.565Z,47.17
2019-04-05T21:45:44.323Z,51.60
2019-04-05T21:48:16.080Z,49.50
2019-04-05T21:50:48.046Z,50.67
2019-04-05T21:53:20.112Z,48.00
2019-04-05T21:55:51.955Z,45.40
2019-04-05T21:58:25.969Z,43.50
2019-04-05T22:01:02.969Z,39.37
2019-04-05T22:03:36.981Z,46.33
2019-04-05T22:06:08.656Z,40.53
2019-04-05T22:08:40.705Z,43.27
2019-04-05T22:11:12.565Z,44.50
2019-04-05T22:13:44.241Z,47.03
2019-04-05T22:16:16.059Z,45.47
2019-04-05T22:18:48.171Z,49.87
2019-04-05T22:21:20.019Z,46.67
2019-04-05T22:23:52.619Z,47.63
2019-04-05T22:26:24.236Z,41.87
2019-04-05T22:28:56.300Z,44.23
2019-04-05T22:31:28.074Z,44.13
2019-04-05T22:34:00.063Z,47.30
2019-04-05T22:36:31.711Z,57.77
2019-04-05T22:39:04.365Z,57.90
2019-04-05T22:41:36.802Z,59.47
2019-04-05T22:44:08.838Z,47.33
2019-04-05T22:46:40.905Z,42.10
2019-04-05T22:49:13.689Z,41.90
2019-04-05T22:51:45.317Z,41.17
2019-04-05T22:54:17.314Z,42.80
2019-04-05T22:56:49.146Z,41.33
2019-04-05T22:59:21.046Z,44.77
2019-04-05T23:01:52.983Z,47.90
2019-04-05T23:04:24.972Z,51.87
2019-04-05T23:06:56.800Z,68.43
2019-04-05T23:09:29.108Z,63.13
2019-04-05T23:12:00.701Z,79.17
2019-04-05T23:14:32.741Z,76.67
2019-04-05T23:17:04.671Z,75.73
2019-04-05T23:19:36.570Z,73.67
2019-04-05T23:22:08.414Z,72.07
2019-04-05T23:24:40.143Z,72.87
2019-04-05T23:27:12.047Z,71.20
2019-04-05T23:29:44.072Z,72.73
2019-04-05T23:32:16.078Z,71.30
2019-04-05T23:34:47.649Z,69.97
2019-04-05T23:37:19.802Z,74.17
2019-04-05T23:39:51.767Z,70.40
2019-04-05T23:42:24.273Z,75.23
2019-04-05T23:44:56.414Z,73.80
2019-04-05T23:47:29.274Z,71.00
2019-04-05T23:50:01.419Z,70.00
2019-04-05T23:52:34.116Z,66.57
2019-04-05T23:55:07.889Z,70.33
2019-04-05T23:57:40.195Z,69.03
